createdAt,value
2018-10-19T00:02:03.551Z,12.60
2018-10-19T00:04:31.519Z,12.60
2018-10-19T00:06:59.515Z,12.50
2018-10-19T00:09:27.473Z,12.50
2018-10-19T00:12:02.016Z,12.50
2018-10-19T00:14:30.177Z,12.40
2018-10-19T00:16:58.717Z,12.40
2018-10-19T00:19:26.615Z,12.40
2018-10-19T00:21:54.477Z,12.40
2018-10-19T00:24:22.409Z,12.40
2018-10-19T00:26:51.171Z,12.40
2018-10-19T00:29:19.142Z,12.30
2018-10-19T00:31:47.179Z,12.30
2018-10-19T00:34:15.755Z,12.30
2018-10-19T00:36:44.773Z,12.30
2018-10-19T00:39:14.903Z,12.30
2018-10-19T00:41:43.836Z,12.30
2018-10-19T00:44:12.475Z,12.30
2018-10-19T00:46:41.225Z,12.20
2018-10-19T00:49:10.271Z,12.20
2018-10-19T00:51:38.819Z,12.10
2018-10-19T00:54:08.012Z,12.10
2018-10-19T00:56:35.971Z,12.10
2018-10-19T00:59:03.937Z,12.00
2018-10-19T01:01:32.036Z,12.00
2018-10-19T01:04:00.023Z,12.00
2018-10-19T01:06:28.063Z,11.90
2018-10-19T01:08:56.063Z,11.90
2018-10-19T01:11:24.005Z,11.90
2018-10-19T01:13:51.966Z,11.90
2018-10-19T01:16:19.886Z,11.80
2018-10-19T01:18:48.067Z,11.80
2018-10-19T01:21:16.012Z,11.80
2018-10-19T01:23:44.034Z,11.70
2018-10-19T01:26:11.964Z,11.70
2018-10-19T01:28:40.008Z,11.70
2018-10-19T01:31:08.039Z,11.60
2018-10-19T01:33:37.043Z,11.60
2018-10-19T01:36:05.814Z,11.60
2018-10-19T01:38:34.661Z,11.50
2018-10-19T01:41:02.761Z,11.50
2018-10-19T01:43:31.239Z,11.50
2018-10-19T01:45:59.854Z,11.50
2018-10-19T01:48:28.493Z,11.40
2018-10-19T01:50:57.326Z,11.40
2018-10-19T01:53:26.338Z,11.40
2018-10-19T01:55:54.861Z,11.40
2018-10-19T01:58:22.830Z,11.30
2018-10-19T02:00:52.842Z,11.30
2018-10-19T02:03:20.781Z,11.30
2018-10-19T02:05:48.623Z,11.30
2018-10-19T02:08:17.142Z,11.20
2018-10-19T02:10:45.133Z,11.20
2018-10-19T02:13:12.978Z,11.20
2018-10-19T02:15:41.026Z,11.10
2018-10-19T02:18:09.985Z,11.10
2018-10-19T02:20:37.869Z,11.10
2018-10-19T02:23:06.515Z,11.10
2018-10-19T02:25:35.126Z,11.10
2018-10-19T02:28:03.335Z,11.10
2018-10-19T02:30:31.285Z,11.10
2018-10-19T02:32:59.258Z,11.10
2018-10-19T02:35:28.330Z,11.10
2018-10-19T02:37:56.769Z,11.00
2018-10-19T02:40:24.697Z,10.90
2018-10-19T02:42:53.571Z,10.80
2018-10-19T02:45:22.099Z,10.70
2018-10-19T02:47:50.071Z,10.60
2018-10-19T02:50:18.076Z,10.60
2018-10-19T02:52:46.675Z,10.50
2018-10-19T02:55:15.020Z,10.40
2018-10-19T02:57:42.972Z,10.30
2018-10-19T03:00:12.043Z,10.30
2018-10-19T03:02:41.247Z,10.20
2018-10-19T03:05:10.220Z,10.10
2018-10-19T03:07:39.195Z,10.10
2018-10-19T03:10:08.966Z,10.10
2018-10-19T03:12:36.859Z,10.00
2018-10-19T03:15:07.507Z,10.00
2018-10-19T03:17:35.371Z,10.00
2018-10-19T03:20:05.359Z,10.00
2018-10-19T03:22:34.386Z,10.00
2018-10-19T03:25:02.466Z,10.00
2018-10-19T03:27:30.355Z,10.00
2018-10-19T03:29:58.259Z,10.00
2018-10-19T03:32:37.370Z,10.00
2018-10-19T03:35:07.280Z,10.00
2018-10-19T03:37:35.842Z,10.00
2018-10-19T03:40:04.730Z,10.10
2018-10-19T03:42:33.420Z,10.10
2018-10-19T03:45:02.015Z,10.20
2018-10-19T03:47:32.150Z,10.20
2018-10-19T03:50:00.193Z,10.20
2018-10-19T03:52:29.006Z,10.20
2018-10-19T03:54:57.018Z,10.20
2018-10-19T03:57:24.995Z,10.30
2018-10-19T03:59:53.085Z,10.30
2018-10-19T04:02:20.708Z,10.20
2018-10-19T04:04:48.385Z,10.20
2018-10-19T04:07:16.271Z,10.30
2018-10-19T04:09:43.950Z,10.30
2018-10-19T04:12:11.613Z,10.30
2018-10-19T04:14:39.281Z,10.30
2018-10-19T04:17:07.000Z,10.30
2018-10-19T04:19:34.579Z,10.40
2018-10-19T04:22:02.185Z,10.40
2018-10-19T04:24:29.825Z,10.40
2018-10-19T04:26:57.582Z,10.40
2018-10-19T04:29:25.252Z,10.50
2018-10-19T04:31:52.862Z,10.50
2018-10-19T04:34:20.448Z,10.50
2018-10-19T04:36:48.156Z,10.50
2018-10-19T04:39:15.850Z,10.50
2018-10-19T04:41:50.545Z,10.60
2018-10-19T04:44:18.057Z,10.60
2018-10-19T04:46:45.661Z,10.60
2018-10-19T04:49:13.305Z,10.60
2018-10-19T04:51:40.914Z,10.70
2018-10-19T04:54:08.517Z,10.70
2018-10-19T04:56:36.118Z,10.70
2018-10-19T04:59:04.173Z,10.70
2018-10-19T05:01:31.846Z,10.70
2018-10-19T05:03:59.530Z,10.70
2018-10-19T05:06:27.256Z,10.70
2018-10-19T05:08:54.796Z,10.60
2018-10-19T05:11:22.388Z,10.60
2018-10-19T05:13:49.996Z,10.60
2018-10-19T05:16:17.572Z,10.60
2018-10-19T05:18:45.202Z,10.60
2018-10-19T05:21:12.862Z,10.50
2018-10-19T05:23:40.589Z,10.50
2018-10-19T05:26:08.248Z,10.50
2018-10-19T05:28:35.898Z,10.50
2018-10-19T05:31:03.561Z,10.50
2018-10-19T05:33:45.984Z,10.50
2018-10-19T11:12:50.200Z,15.20
2018-10-19T11:15:18.546Z,15.20
2018-10-19T11:17:46.360Z,15.20
2018-10-19T11:20:15.052Z,15.00
2018-10-19T11:22:42.799Z,15.00
2018-10-19T11:25:11.375Z,14.90
2018-10-19T11:27:40.113Z,14.80
2018-10-19T11:30:09.344Z,14.90
2018-10-19T11:32:45.646Z,15.00
2018-10-19T11:35:14.636Z,15.00
2018-10-19T11:37:42.696Z,15.20
2018-10-19T11:40:29.747Z,15.50
2018-10-19T11:43:00.201Z,15.80
2018-10-19T11:45:29.344Z,15.90
2018-10-19T11:48:07.085Z,16.00
2018-10-19T11:50:34.749Z,16.10
2018-10-19T11:57:59.681Z,16.20
2018-10-19T12:00:27.280Z,16.00
2018-10-19T12:02:54.953Z,16.00
2018-10-19T12:05:22.579Z,15.90
2018-10-19T12:07:50.190Z,15.90
2018-10-19T12:10:17.994Z,15.90
2018-10-19T12:12:45.654Z,16.00
2018-10-19T12:15:14.775Z,16.10
2018-10-19T12:32:34.917Z,16.70
2018-10-19T12:35:02.606Z,16.70
2018-10-19T12:37:30.282Z,16.50
2018-10-19T12:39:57.921Z,16.50
2018-10-19T12:42:25.597Z,16.50
2018-10-19T12:44:53.387Z,16.20
2018-10-19T12:47:30.838Z,16.20
2018-10-19T12:49:58.389Z,16.20
2018-10-19T12:52:26.773Z,16.30
2018-10-19T12:54:54.531Z,16.20
2018-10-19T12:57:23.352Z,16.20
2018-10-19T12:59:51.171Z,16.20
2018-10-19T13:05:17.235Z,16.30
2018-10-19T13:07:45.018Z,16.40
2018-10-19T13:10:13.193Z,16.30
2018-10-19T13:12:40.813Z,16.30
2018-10-19T13:15:08.748Z,16.30
2018-10-19T13:17:36.360Z,16.40
2018-10-19T13:20:04.170Z,16.50
2018-10-19T13:22:31.822Z,16.50
2018-10-19T13:24:59.471Z,16.50
2018-10-19T13:27:27.074Z,16.40
2018-10-19T13:29:54.749Z,16.20
2018-10-19T13:32:22.376Z,16.00
2018-10-19T13:34:50.080Z,16.10
2018-10-19T13:37:17.800Z,16.20
2018-10-19T13:39:45.537Z,16.20
2018-10-19T13:42:32.044Z,16.20
2018-10-19T13:44:59.861Z,16.20
2018-10-19T13:47:27.475Z,16.20
2018-10-19T13:49:55.357Z,16.20
2018-10-19T13:52:23.002Z,16.20
2018-10-19T13:54:50.704Z,16.20
2018-10-19T13:57:18.340Z,16.40
2018-10-19T13:59:46.055Z,16.50
2018-10-19T14:02:13.692Z,16.50
2018-10-19T14:04:41.379Z,16.70
2018-10-19T14:07:08.966Z,16.90
2018-10-19T14:09:36.783Z,16.80
2018-10-19T14:12:04.849Z,16.80
2018-10-19T14:17:10.723Z,17.30
2018-10-19T14:19:39.237Z,17.50
2018-10-19T14:22:19.963Z,17.50
2018-10-19T14:24:48.893Z,17.40
2018-10-19T14:27:18.932Z,17.30
2018-10-19T14:29:47.261Z,17.30
2018-10-19T14:32:15.342Z,17.10
2018-10-19T14:34:43.472Z,17.00
2018-10-19T14:37:11.276Z,16.80
2018-10-19T14:39:40.281Z,16.60
2018-10-19T14:42:08.175Z,16.50
2018-10-19T14:44:35.999Z,16.40
2018-10-19T14:47:03.980Z,16.20
2018-10-19T14:49:33.803Z,16.00
2018-10-19T14:52:01.681Z,16.00
2018-10-19T14:54:29.588Z,16.00
2018-10-19T14:56:57.339Z,16.00
2018-10-19T14:59:25.914Z,16.00
2018-10-19T15:01:54.107Z,15.90
2018-10-19T15:04:22.377Z,15.90
2018-10-19T15:06:50.308Z,15.90
2018-10-19T15:09:18.023Z,15.80
2018-10-19T15:11:45.751Z,15.80
2018-10-19T15:14:14.540Z,15.70
2018-10-19T15:16:42.789Z,15.60
2018-10-19T15:19:11.879Z,15.60
2018-10-19T15:21:42.026Z,15.60
2018-10-19T15:24:10.593Z,15.50
2018-10-19T15:26:40.646Z,15.30
2018-10-19T15:29:10.305Z,15.20
2018-10-19T15:31:38.333Z,15.20
2018-10-19T15:34:07.976Z,15.10
2018-10-19T15:36:37.680Z,15.00
2018-10-19T15:39:08.483Z,15.00
2018-10-19T15:41:36.290Z,14.90
2018-10-19T15:44:12.226Z,14.80
2018-10-19T15:46:58.281Z,14.70
2018-10-19T15:49:28.853Z,14.60
2018-10-19T15:51:56.692Z,14.50
2018-10-19T15:54:24.362Z,14.50
2018-10-19T15:56:52.328Z,14.40
2018-10-19T15:59:20.321Z,14.30
2018-10-19T16:01:47.984Z,14.30
2018-10-19T16:04:15.763Z,14.20
2018-10-19T16:06:43.623Z,14.20
2018-10-19T16:09:12.749Z,14.20
2018-10-19T16:11:40.359Z,14.20
2018-10-19T16:14:08.111Z,14.10
2018-10-19T16:16:35.727Z,14.10
2018-10-19T16:19:03.481Z,14.00
2018-10-19T16:21:31.652Z,14.00
2018-10-19T16:24:00.724Z,13.90
2018-10-19T16:26:28.488Z,13.90
2018-10-19T16:28:56.213Z,13.80
2018-10-19T16:31:24.044Z,13.80
2018-10-19T16:33:51.739Z,13.70
2018-10-19T16:36:19.361Z,13.60
2018-10-19T16:38:47.250Z,13.60
2018-10-19T16:41:14.991Z,13.50
2018-10-19T16:43:42.657Z,13.50
2018-10-19T16:46:10.716Z,13.40
2018-10-19T16:48:38.390Z,13.30
2018-10-19T16:51:06.108Z,13.20
2018-10-19T16:53:34.835Z,13.10
2018-10-19T16:56:02.443Z,12.90
2018-10-19T16:58:30.089Z,12.90
2018-10-19T17:00:57.761Z,12.80
2018-10-19T17:03:25.549Z,12.80
2018-10-19T17:05:53.214Z,12.70
2018-10-19T17:08:20.946Z,12.50
2018-10-19T17:10:48.697Z,12.50
2018-10-19T17:13:17.002Z,12.40
2018-10-19T17:15:44.600Z,12.30
2018-10-19T17:18:13.588Z,12.20
2018-10-19T17:20:48.154Z,12.20
2018-10-19T17:23:16.597Z,12.10
2018-10-19T17:25:44.281Z,12.10
2018-10-19T17:28:12.246Z,12.10
2018-10-19T17:30:40.171Z,12.10
2018-10-19T17:33:09.465Z,12.00
2018-10-19T17:35:37.154Z,12.10
2018-10-19T17:38:05.435Z,12.10
2018-10-19T17:40:33.130Z,12.20
2018-10-19T17:43:00.887Z,12.20
2018-10-19T17:45:28.747Z,12.20
2018-10-19T17:50:31.070Z,12.10
2018-10-19T17:52:59.293Z,12.10
2018-10-19T17:55:26.988Z,11.90
2018-10-19T17:57:54.857Z,11.80
2018-10-19T18:00:22.523Z,11.80
2018-10-19T18:02:50.238Z,11.70
2018-10-19T18:05:18.076Z,11.70
2018-10-19T18:07:45.711Z,11.70
2018-10-19T18:10:13.406Z,11.70
2018-10-19T18:12:41.221Z,11.60
2018-10-19T18:15:09.241Z,11.70
2018-10-19T18:17:37.546Z,11.60
2018-10-19T18:20:05.310Z,11.70
2018-10-19T18:22:33.065Z,11.80
2018-10-19T18:25:00.705Z,11.80
2018-10-19T18:27:28.492Z,11.80
2018-10-19T18:29:56.140Z,11.90
2018-10-19T18:32:27.921Z,11.90
2018-10-19T18:34:57.256Z,12.00
2018-10-19T18:37:25.570Z,12.10
2018-10-19T18:39:54.903Z,12.10
2018-10-19T18:42:22.581Z,12.20
2018-10-19T18:44:50.212Z,12.30
2018-10-19T18:47:18.544Z,12.30
2018-10-19T18:49:46.168Z,12.30
2018-10-19T18:52:15.269Z,12.20
2018-10-19T18:54:43.823Z,12.10
2018-10-19T18:57:12.157Z,12.10
2018-10-19T18:59:40.077Z,12.10
2018-10-19T19:02:08.905Z,12.10
2018-10-19T19:04:36.772Z,12.10
2018-10-19T19:07:05.222Z,12.10
2018-10-19T19:09:32.857Z,12.10
2018-10-19T19:12:00.866Z,12.10
2018-10-19T19:14:31.612Z,12.00
2018-10-19T19:16:59.280Z,12.00
2018-10-19T19:22:43.145Z,11.90
2018-10-19T19:25:16.665Z,11.80
2018-10-19T19:27:45.172Z,11.60
2018-10-19T19:30:25.494Z,11.50
2018-10-19T19:32:59.971Z,11.40
2018-10-19T19:35:28.619Z,11.40
2018-10-19T19:37:56.289Z,11.30
2018-10-19T19:40:23.978Z,11.10
2018-10-19T19:42:53.903Z,11.00
2018-10-19T19:45:22.087Z,10.80
2018-10-19T19:47:55.982Z,10.80
2018-10-19T19:50:23.784Z,10.80
2018-10-19T19:52:51.451Z,10.80
2018-10-19T19:55:19.163Z,10.70
2018-10-19T19:57:46.968Z,10.60
2018-10-19T20:00:15.763Z,10.60
2018-10-19T20:02:43.451Z,10.60
2018-10-19T20:05:11.173Z,10.60
2018-10-19T20:07:39.786Z,10.60
2018-10-19T20:10:07.628Z,10.60
2018-10-19T20:12:35.874Z,10.60
2018-10-19T20:15:24.844Z,10.50
2018-10-19T20:17:52.689Z,10.50
2018-10-19T20:20:21.121Z,10.40
2018-10-19T20:22:48.843Z,10.30
2018-10-19T20:25:16.642Z,10.20
2018-10-19T20:27:45.182Z,10.20
2018-10-19T20:30:13.430Z,10.10
2018-10-19T20:32:41.733Z,10.00
2018-10-19T20:35:09.844Z,10.00
2018-10-19T20:37:37.495Z,10.00
2018-10-19T20:40:05.351Z,10.10
2018-10-19T20:42:33.349Z,10.10
2018-10-19T20:45:01.099Z,10.10
2018-10-19T20:47:28.761Z,10.00
2018-10-19T20:49:57.977Z,10.00
2018-10-19T20:52:26.388Z,9.90
2018-10-19T20:54:54.824Z,9.80
2018-10-19T20:57:22.538Z,9.70
2018-10-19T20:59:50.240Z,9.60
2018-10-19T21:02:17.874Z,9.60
2018-10-19T21:04:46.385Z,9.50
2018-10-19T21:07:14.103Z,9.50
2018-10-19T21:09:41.804Z,9.50
2018-10-19T21:12:09.550Z,9.50
2018-10-19T21:14:37.285Z,9.50
2018-10-19T21:17:04.930Z,9.50
2018-10-19T21:19:32.675Z,9.50
2018-10-19T21:22:00.720Z,9.50
2018-10-19T21:24:28.471Z,9.50
2018-10-19T21:26:56.239Z,9.40
2018-10-19T21:29:23.981Z,9.30
2018-10-19T21:31:51.669Z,9.20
2018-10-19T21:34:19.369Z,9.10
2018-10-19T21:36:47.033Z,9.00
2018-10-19T21:39:14.731Z,9.00
2018-10-19T21:41:42.366Z,8.90
2018-10-19T21:44:10.673Z,8.90
2018-10-19T21:46:38.329Z,8.80
2018-10-19T21:49:06.070Z,8.70
2018-10-19T21:51:33.711Z,8.60
2018-10-19T21:54:01.375Z,8.60
2018-10-19T21:56:29.130Z,8.50
2018-10-19T21:58:56.839Z,8.50
2018-10-19T22:01:24.405Z,8.50
2018-10-19T22:03:54.310Z,8.50
2018-10-19T22:06:22.111Z,8.50
2018-10-19T22:08:50.352Z,8.50
2018-10-19T22:11:18.817Z,8.50
2018-10-19T22:13:48.264Z,8.40
2018-10-19T22:16:15.914Z,8.30
2018-10-19T22:18:43.731Z,8.30
2018-10-19T22:21:11.419Z,8.30
2018-10-19T22:23:39.781Z,8.30
2018-10-19T22:26:07.531Z,8.30
2018-10-19T22:28:35.160Z,8.30
2018-10-19T22:31:02.880Z,8.20
2018-10-19T22:33:31.074Z,8.20
2018-10-19T22:35:58.718Z,8.20
2018-10-19T22:38:26.608Z,8.10
2018-10-19T22:40:54.395Z,8.10
2018-10-19T22:43:22.047Z,8.10
2018-10-19T22:45:49.640Z,8.10
2018-10-19T22:48:17.403Z,8.10
2018-10-19T22:50:45.042Z,8.00
2018-10-19T22:53:20.218Z,8.00
2018-10-19T22:55:47.901Z,7.90
2018-10-19T22:58:15.463Z,7.90
2018-10-19T23:00:43.193Z,7.80
2018-10-19T23:03:10.896Z,7.70
2018-10-19T23:05:38.550Z,7.60
2018-10-19T23:08:06.885Z,7.60
2018-10-19T23:10:34.654Z,7.50
2018-10-19T23:13:02.336Z,7.40
2018-10-19T23:15:30.294Z,7.40
2018-10-19T23:17:57.954Z,7.40
2018-10-19T23:20:25.801Z,7.40
2018-10-19T23:22:54.080Z,7.40
2018-10-19T23:25:21.869Z,7.40
2018-10-19T23:27:49.547Z,7.40
2018-10-19T23:30:17.186Z,7.40
2018-10-19T23:32:45.540Z,7.50
2018-10-19T23:35:13.251Z,7.50
2018-10-19T23:37:40.856Z,7.50
2018-10-19T23:40:09.218Z,7.50
2018-10-19T23:42:36.850Z,7.50
2018-10-19T23:45:05.746Z,7.40
2018-10-19T23:47:33.417Z,7.40
2018-10-19T23:50:01.106Z,7.40
2018-10-19T23:52:28.844Z,7.30
2018-10-19T23:54:56.518Z,7.30
2018-10-19T23:57:24.728Z,7.20
2018-10-19T23:59:52.389Z,7.10
